CEB996 RPMR-RPLL
Flight info
| Callsign | CEB996 |
|---|---|
| Flight time | 1h 27m |
| Altitude | 38000 |
| Route | LATIA4R LATIA W6 LUMVI B473 LAIYA LAIYA7P |
| Aircraft | A339/H-SADE1E2E3GHIJ3J5M1P2RWXY/LB2D1 |
Departure
| Time | 2026-04-30 11:30 |
|---|---|
| Airport | General Santos International Airport (RPMR) |
Arrival
| Time | 2026-04-30 12:57 |
|---|---|
| Airport | Ninoy Aquino International Airport (RPLL) |
| Time | Latitude | Longitude | Altitude | Speed | Heading |
|---|---|---|---|---|---|
| 2026-04-30 11:09 | 6.05710 | 125.09956 | 539 ft | 0 kts | 83° |
| 2026-04-30 11:18 | 6.05707 | 125.09931 | 539 ft | 2 kts | 83° |
| 2026-04-30 11:18 | 6.05705 | 125.09917 | 539 ft | 0 kts | 83° |
| 2026-04-30 11:19 | 6.05703 | 125.09907 | 539 ft | 2 kts | 71° |
| 2026-04-30 11:19 | 6.05696 | 125.09894 | 539 ft | 2 kts | 43° |
| 2026-04-30 11:19 | 6.05684 | 125.09885 | 539 ft | 2 kts | 20° |
| 2026-04-30 11:19 | 6.05669 | 125.09883 | 539 ft | 1 kts | 356° |
| 2026-04-30 11:20 | 6.05664 | 125.09883 | 539 ft | 1 kts | 352° |
| 2026-04-30 11:20 | 6.05663 | 125.09884 | 539 ft | 0 kts | 353° |
| 2026-04-30 11:23 | 6.05671 | 125.09882 | 539 ft | 2 kts | 353° |
| 2026-04-30 11:23 | 6.05699 | 125.09879 | 539 ft | 5 kts | 353° |
| 2026-04-30 11:23 | 6.05819 | 125.09861 | 539 ft | 8 kts | 334° |
| 2026-04-30 11:24 | 6.05835 | 125.09813 | 539 ft | 8 kts | 272° |
| 2026-04-30 11:24 | 6.05833 | 125.09749 | 539 ft | 9 kts | 264° |
| 2026-04-30 11:24 | 6.05822 | 125.09676 | 539 ft | 11 kts | 261° |
| 2026-04-30 11:25 | 6.05909 | 125.09604 | 540 ft | 12 kts | 351° |
| 2026-04-30 11:25 | 6.06016 | 125.09591 | 540 ft | 18 kts | 353° |
| 2026-04-30 11:25 | 6.06331 | 125.09554 | 540 ft | 27 kts | 352° |
| 2026-04-30 11:26 | 6.06733 | 125.09502 | 539 ft | 28 kts | 353° |
| 2026-04-30 11:26 | 6.06924 | 125.09481 | 539 ft | 25 kts | 354° |
| 2026-04-30 11:26 | 6.07058 | 125.09471 | 539 ft | 12 kts | 356° |
| 2026-04-30 11:27 | 6.07118 | 125.09479 | 539 ft | 7 kts | 41° |
| 2026-04-30 11:27 | 6.07137 | 125.09524 | 539 ft | 7 kts | 85° |
| 2026-04-30 11:27 | 6.07144 | 125.09582 | 539 ft | 8 kts | 77° |
| 2026-04-30 11:27 | 6.07180 | 125.09613 | 539 ft | 7 kts | 14° |
| 2026-04-30 11:28 | 6.07262 | 125.09570 | 539 ft | 7 kts | 281° |
| 2026-04-30 11:28 | 6.07259 | 125.09516 | 539 ft | 8 kts | 262° |
| 2026-04-30 11:28 | 6.07252 | 125.09469 | 539 ft | 5 kts | 261° |
| 2026-04-30 11:29 | 6.07238 | 125.09444 | 539 ft | 3 kts | 193° |
| 2026-04-30 11:29 | 6.07210 | 125.09446 | 539 ft | 0 kts | 173° |
| 2026-04-30 11:29 | 6.06711 | 125.09508 | 540 ft | 96 kts | 173° |
| 2026-04-30 11:30 | 6.04703 | 125.09753 | 828 ft | 170 kts | 172° |
| 2026-04-30 11:30 | 6.03580 | 125.09893 | 1637 ft | 158 kts | 172° |
| 2026-04-30 11:30 | 6.02522 | 125.10023 | 2189 ft | 155 kts | 172° |
| 2026-04-30 11:31 | 6.01388 | 125.10165 | 2452 ft | 172 kts | 172° |
| 2026-04-30 11:31 | 6.00136 | 125.10318 | 2751 ft | 188 kts | 172° |
| 2026-04-30 11:31 | 5.98774 | 125.10483 | 3050 ft | 205 kts | 171° |
| 2026-04-30 11:31 | 5.97312 | 125.10681 | 3340 ft | 221 kts | 165° |
| 2026-04-30 11:32 | 5.95930 | 125.11434 | 3636 ft | 235 kts | 131° |
| 2026-04-30 11:32 | 5.95116 | 125.12897 | 3973 ft | 249 kts | 100° |
| 2026-04-30 11:32 | 5.95216 | 125.14644 | 4372 ft | 263 kts | 68° |
| 2026-04-30 11:33 | 5.98016 | 125.16816 | 5877 ft | 269 kts | 11° |
| 2026-04-30 11:33 | 5.99877 | 125.16734 | 6633 ft | 275 kts | 348° |
| 2026-04-30 11:33 | 6.01733 | 125.16224 | 7343 ft | 279 kts | 347° |
| 2026-04-30 11:33 | 6.03626 | 125.15692 | 8033 ft | 284 kts | 347° |
| 2026-04-30 11:34 | 6.05533 | 125.15154 | 8723 ft | 288 kts | 346° |
| 2026-04-30 11:34 | 6.07480 | 125.14607 | 9403 ft | 292 kts | 346° |
| 2026-04-30 11:34 | 6.09433 | 125.14059 | 10069 ft | 296 kts | 346° |
| 2026-04-30 11:34 | 6.11442 | 125.13498 | 10621 ft | 305 kts | 346° |
| 2026-04-30 11:35 | 6.13552 | 125.12909 | 10937 ft | 322 kts | 346° |
| 2026-04-30 11:35 | 6.15761 | 125.12298 | 11232 ft | 339 kts | 347° |
| 2026-04-30 11:35 | 6.18100 | 125.11668 | 11635 ft | 352 kts | 347° |
| 2026-04-30 11:35 | 6.20497 | 125.11024 | 12272 ft | 356 kts | 347° |
| 2026-04-30 11:36 | 6.22898 | 125.10377 | 12920 ft | 359 kts | 346° |
| 2026-04-30 11:36 | 6.25297 | 125.09732 | 13545 ft | 362 kts | 346° |
| 2026-04-30 11:36 | 6.27780 | 125.09063 | 14150 ft | 366 kts | 346° |
| 2026-04-30 11:36 | 6.30258 | 125.08395 | 14728 ft | 371 kts | 346° |
| 2026-04-30 11:37 | 6.32765 | 125.07718 | 15306 ft | 375 kts | 346° |
| 2026-04-30 11:37 | 6.35269 | 125.07040 | 15865 ft | 378 kts | 346° |
| 2026-04-30 11:37 | 6.37837 | 125.06348 | 16434 ft | 381 kts | 347° |
| 2026-04-30 11:37 | 6.40398 | 125.05657 | 16988 ft | 384 kts | 346° |
| 2026-04-30 11:38 | 6.43025 | 125.04950 | 17548 ft | 387 kts | 347° |
| 2026-04-30 11:38 | 6.45641 | 125.04244 | 18088 ft | 391 kts | 347° |
| 2026-04-30 11:38 | 6.48279 | 125.03532 | 18608 ft | 395 kts | 347° |
| 2026-04-30 11:38 | 6.50953 | 125.02810 | 19133 ft | 399 kts | 347° |
| 2026-04-30 11:39 | 6.53632 | 125.02086 | 19647 ft | 403 kts | 347° |
| 2026-04-30 11:39 | 6.56364 | 125.01349 | 20164 ft | 407 kts | 347° |
| 2026-04-30 11:39 | 6.59108 | 125.00607 | 20677 ft | 410 kts | 347° |
| 2026-04-30 11:39 | 6.61873 | 124.99861 | 21188 ft | 413 kts | 347° |
| 2026-04-30 11:40 | 6.64685 | 124.99104 | 21710 ft | 415 kts | 347° |
| 2026-04-30 11:40 | 6.67500 | 124.98344 | 22201 ft | 419 kts | 347° |
| 2026-04-30 11:40 | 6.70310 | 124.97587 | 22664 ft | 422 kts | 347° |
| 2026-04-30 11:40 | 6.73172 | 124.96815 | 23131 ft | 425 kts | 347° |
| 2026-04-30 11:41 | 6.76037 | 124.96041 | 23595 ft | 428 kts | 347° |
| 2026-04-30 11:41 | 6.78929 | 124.95259 | 24057 ft | 430 kts | 347° |
| 2026-04-30 11:41 | 6.81833 | 124.94473 | 24495 ft | 433 kts | 347° |
| 2026-04-30 11:41 | 6.84744 | 124.93686 | 24918 ft | 436 kts | 347° |
| 2026-04-30 11:42 | 6.87680 | 124.92893 | 25345 ft | 439 kts | 347° |
| 2026-04-30 11:42 | 6.90679 | 124.92114 | 25760 ft | 441 kts | 349° |
| 2026-04-30 11:42 | 6.93668 | 124.91468 | 26166 ft | 443 kts | 351° |
| 2026-04-30 11:42 | 6.96697 | 124.90841 | 26565 ft | 445 kts | 351° |
| 2026-04-30 11:43 | 6.99737 | 124.90219 | 26966 ft | 447 kts | 351° |
| 2026-04-30 11:43 | 7.02815 | 124.89589 | 27344 ft | 450 kts | 351° |
| 2026-04-30 11:43 | 7.05881 | 124.88958 | 27720 ft | 452 kts | 351° |
| 2026-04-30 11:43 | 7.09004 | 124.88316 | 28091 ft | 455 kts | 351° |
| 2026-04-30 11:44 | 7.12129 | 124.87671 | 28450 ft | 458 kts | 351° |
| 2026-04-30 11:44 | 7.15252 | 124.87026 | 28807 ft | 460 kts | 351° |
| 2026-04-30 11:44 | 7.18422 | 124.86371 | 29168 ft | 463 kts | 351° |
| 2026-04-30 11:44 | 7.21580 | 124.85717 | 29531 ft | 465 kts | 351° |
| 2026-04-30 11:45 | 7.24748 | 124.85062 | 29905 ft | 467 kts | 351° |
| 2026-04-30 11:45 | 7.27950 | 124.84402 | 30263 ft | 469 kts | 351° |
| 2026-04-30 11:45 | 7.31151 | 124.83742 | 30630 ft | 471 kts | 351° |
| 2026-04-30 11:45 | 7.34377 | 124.83078 | 30992 ft | 473 kts | 351° |
| 2026-04-30 11:46 | 7.37598 | 124.82415 | 31334 ft | 475 kts | 351° |
| 2026-04-30 11:46 | 7.40874 | 124.81739 | 31684 ft | 476 kts | 351° |
| 2026-04-30 11:46 | 7.44103 | 124.81074 | 32064 ft | 477 kts | 351° |
| 2026-04-30 11:46 | 7.47389 | 124.80395 | 32556 ft | 476 kts | 351° |
| 2026-04-30 11:47 | 7.50592 | 124.79734 | 33134 ft | 473 kts | 351° |
| 2026-04-30 11:47 | 7.53815 | 124.79069 | 33703 ft | 471 kts | 351° |
| 2026-04-30 11:47 | 7.57051 | 124.78401 | 34269 ft | 470 kts | 351° |
| 2026-04-30 11:47 | 7.60243 | 124.77743 | 34806 ft | 468 kts | 351° |
| 2026-04-30 11:48 | 7.63438 | 124.77084 | 35325 ft | 466 kts | 351° |
| 2026-04-30 11:48 | 7.66625 | 124.76425 | 35813 ft | 465 kts | 350° |
| 2026-04-30 11:48 | 7.69777 | 124.75774 | 36253 ft | 465 kts | 350° |
| 2026-04-30 11:48 | 7.71891 | 124.75337 | 36503 ft | 465 kts | 350° |
| 2026-04-30 11:49 | 7.75664 | 124.74556 | 36878 ft | 467 kts | 350° |
| 2026-04-30 11:49 | 7.78836 | 124.73901 | 37157 ft | 469 kts | 350° |
| 2026-04-30 11:49 | 7.82057 | 124.73234 | 37418 ft | 471 kts | 350° |
| 2026-04-30 11:49 | 7.85261 | 124.72571 | 37673 ft | 473 kts | 351° |
| 2026-04-30 11:50 | 7.88497 | 124.71900 | 37925 ft | 475 kts | 350° |
| 2026-04-30 11:50 | 7.91777 | 124.71223 | 38087 ft | 477 kts | 350° |
| 2026-04-30 11:50 | 7.98303 | 124.69873 | 38111 ft | 478 kts | 350° |
| 2026-04-30 11:51 | 8.03723 | 124.68755 | 38121 ft | 478 kts | 350° |
| 2026-04-30 11:51 | 8.11345 | 124.67180 | 38083 ft | 478 kts | 350° |
| 2026-04-30 11:52 | 8.17883 | 124.65828 | 38045 ft | 478 kts | 350° |
| 2026-04-30 11:52 | 8.24424 | 124.64474 | 38020 ft | 479 kts | 350° |
| 2026-04-30 11:53 | 8.30947 | 124.63126 | 37993 ft | 479 kts | 350° |
| 2026-04-30 11:53 | 8.37462 | 124.61518 | 37972 ft | 481 kts | 345° |
| 2026-04-30 11:54 | 8.42748 | 124.59649 | 37946 ft | 482 kts | 339° |
| 2026-04-30 11:54 | 8.49787 | 124.56239 | 37928 ft | 482 kts | 332° |
| 2026-04-30 11:55 | 8.55616 | 124.52875 | 37906 ft | 483 kts | 331° |
| 2026-04-30 11:55 | 8.61462 | 124.49480 | 37903 ft | 483 kts | 332° |
| 2026-04-30 11:56 | 8.67393 | 124.46049 | 37893 ft | 496 kts | 331° |
| 2026-04-30 11:56 | 8.73444 | 124.42556 | 37878 ft | 506 kts | 331° |
| 2026-04-30 11:57 | 8.79584 | 124.39006 | 37867 ft | 509 kts | 331° |
| 2026-04-30 11:57 | 8.85737 | 124.35447 | 37861 ft | 508 kts | 331° |
| 2026-04-30 11:58 | 8.91859 | 124.31905 | 37858 ft | 508 kts | 331° |
| 2026-04-30 11:58 | 8.98001 | 124.28348 | 37857 ft | 508 kts | 331° |
| 2026-04-30 11:59 | 9.04131 | 124.24800 | 37856 ft | 508 kts | 331° |
| 2026-04-30 11:59 | 9.10314 | 124.21222 | 37858 ft | 509 kts | 330° |
| 2026-04-30 12:00 | 9.16465 | 124.17653 | 37859 ft | 510 kts | 331° |
| 2026-04-30 12:00 | 9.22592 | 124.14093 | 37860 ft | 509 kts | 331° |
| 2026-04-30 12:01 | 9.28740 | 124.10520 | 37858 ft | 508 kts | 331° |
| 2026-04-30 12:01 | 9.34855 | 124.06965 | 37864 ft | 509 kts | 331° |
| 2026-04-30 12:02 | 9.41054 | 124.03371 | 37869 ft | 510 kts | 331° |
| 2026-04-30 12:02 | 9.47193 | 123.99835 | 37876 ft | 511 kts | 331° |
| 2026-04-30 12:03 | 9.56483 | 123.94454 | 37891 ft | 511 kts | 330° |
| 2026-04-30 12:04 | 9.62641 | 123.90875 | 37891 ft | 512 kts | 331° |
| 2026-04-30 12:04 | 9.68855 | 123.87263 | 37895 ft | 512 kts | 330° |
| 2026-04-30 12:05 | 9.75032 | 123.83669 | 37897 ft | 513 kts | 331° |
| 2026-04-30 12:05 | 9.81227 | 123.80063 | 37899 ft | 512 kts | 331° |
| 2026-04-30 12:05 | 9.84278 | 123.78285 | 37893 ft | 499 kts | 331° |
| 2026-04-30 12:06 | 9.87265 | 123.76545 | 37896 ft | 486 kts | 331° |
| 2026-04-30 12:06 | 9.93135 | 123.73128 | 37899 ft | 487 kts | 331° |
| 2026-04-30 12:07 | 9.99003 | 123.69711 | 37900 ft | 487 kts | 331° |
| 2026-04-30 12:07 | 10.04878 | 123.66283 | 37896 ft | 486 kts | 331° |
| 2026-04-30 12:08 | 10.10723 | 123.62871 | 37892 ft | 484 kts | 331° |
| 2026-04-30 12:08 | 10.16585 | 123.59446 | 37885 ft | 484 kts | 331° |
| 2026-04-30 12:09 | 10.22416 | 123.56038 | 37889 ft | 482 kts | 331° |
| 2026-04-30 12:09 | 10.28243 | 123.52629 | 37886 ft | 483 kts | 331° |
| 2026-04-30 12:10 | 10.34062 | 123.49236 | 37876 ft | 483 kts | 331° |
| 2026-04-30 12:10 | 10.39908 | 123.45829 | 37890 ft | 481 kts | 331° |
| 2026-04-30 12:11 | 10.45707 | 123.42442 | 37900 ft | 480 kts | 331° |
| 2026-04-30 12:11 | 10.51472 | 123.39074 | 37907 ft | 480 kts | 331° |
| 2026-04-30 12:12 | 10.57276 | 123.35680 | 37922 ft | 479 kts | 331° |
| 2026-04-30 12:12 | 10.63074 | 123.32288 | 37930 ft | 479 kts | 331° |
| 2026-04-30 12:13 | 10.68830 | 123.28924 | 37939 ft | 479 kts | 331° |
| 2026-04-30 12:13 | 10.74643 | 123.25528 | 37951 ft | 478 kts | 331° |
| 2026-04-30 12:14 | 10.80382 | 123.22169 | 37947 ft | 477 kts | 331° |
| 2026-04-30 12:14 | 10.86148 | 123.18787 | 37923 ft | 478 kts | 331° |
| 2026-04-30 12:15 | 10.91921 | 123.15398 | 37904 ft | 477 kts | 331° |
| 2026-04-30 12:15 | 10.97650 | 123.12033 | 37892 ft | 476 kts | 331° |
| 2026-04-30 12:16 | 11.03398 | 123.08663 | 37893 ft | 477 kts | 331° |
| 2026-04-30 12:16 | 11.09164 | 123.05280 | 37895 ft | 477 kts | 331° |
| 2026-04-30 12:17 | 11.17816 | 123.00195 | 37899 ft | 477 kts | 330° |
| 2026-04-30 12:17 | 11.23555 | 122.96817 | 37898 ft | 477 kts | 330° |
| 2026-04-30 12:18 | 11.29308 | 122.93431 | 37901 ft | 476 kts | 331° |
| 2026-04-30 12:18 | 11.35010 | 122.90076 | 37901 ft | 476 kts | 330° |
| 2026-04-30 12:19 | 11.40767 | 122.86691 | 37899 ft | 476 kts | 330° |
| 2026-04-30 12:19 | 11.46512 | 122.83305 | 37900 ft | 476 kts | 330° |
| 2026-04-30 12:20 | 11.52245 | 122.79923 | 37899 ft | 476 kts | 330° |
| 2026-04-30 12:20 | 11.57975 | 122.76541 | 37898 ft | 475 kts | 330° |
| 2026-04-30 12:21 | 11.63578 | 122.72941 | 37896 ft | 475 kts | 327° |
| 2026-04-30 12:21 | 11.69093 | 122.69229 | 37895 ft | 476 kts | 327° |
| 2026-04-30 12:22 | 11.74633 | 122.65493 | 37893 ft | 476 kts | 327° |
| 2026-04-30 12:22 | 11.80132 | 122.61787 | 37891 ft | 476 kts | 327° |
| 2026-04-30 12:23 | 11.85696 | 122.58035 | 37891 ft | 476 kts | 327° |
| 2026-04-30 12:23 | 11.91198 | 122.54326 | 37892 ft | 475 kts | 327° |
| 2026-04-30 12:24 | 11.96720 | 122.50598 | 37890 ft | 475 kts | 327° |
| 2026-04-30 12:24 | 12.02240 | 122.46872 | 37882 ft | 474 kts | 327° |
| 2026-04-30 12:25 | 12.07732 | 122.43165 | 37879 ft | 474 kts | 327° |
| 2026-04-30 12:25 | 12.13242 | 122.39441 | 37879 ft | 475 kts | 327° |
| 2026-04-30 12:26 | 12.18790 | 122.35689 | 37883 ft | 476 kts | 327° |
| 2026-04-30 12:26 | 12.24302 | 122.31960 | 37882 ft | 476 kts | 327° |
| 2026-04-30 12:27 | 12.29817 | 122.28223 | 37884 ft | 476 kts | 327° |
| 2026-04-30 12:27 | 12.35346 | 122.24478 | 37890 ft | 476 kts | 327° |
| 2026-04-30 12:28 | 12.40869 | 122.20695 | 37894 ft | 476 kts | 326° |
| 2026-04-30 12:28 | 12.46336 | 122.16897 | 37897 ft | 477 kts | 326° |
| 2026-04-30 12:29 | 12.51854 | 122.13059 | 37898 ft | 477 kts | 326° |
| 2026-04-30 12:29 | 12.57336 | 122.09251 | 37897 ft | 479 kts | 326° |
| 2026-04-30 12:30 | 12.62837 | 122.05424 | 37898 ft | 479 kts | 326° |
| 2026-04-30 12:30 | 12.68375 | 122.01570 | 37897 ft | 478 kts | 326° |
| 2026-04-30 12:31 | 12.73848 | 121.97760 | 37905 ft | 478 kts | 325° |
| 2026-04-30 12:31 | 12.79385 | 121.93904 | 37901 ft | 479 kts | 325° |
| 2026-04-30 12:32 | 12.84904 | 121.90060 | 37750 ft | 480 kts | 325° |
| 2026-04-30 12:32 | 12.87660 | 121.88138 | 37324 ft | 478 kts | 325° |
| 2026-04-30 12:32 | 12.90374 | 121.86246 | 36855 ft | 474 kts | 325° |
| 2026-04-30 12:33 | 12.93100 | 121.84345 | 36310 ft | 472 kts | 325° |
| 2026-04-30 12:33 | 12.95829 | 121.82440 | 35636 ft | 472 kts | 325° |
| 2026-04-30 12:33 | 12.98524 | 121.80558 | 34795 ft | 476 kts | 325° |
| 2026-04-30 12:33 | 13.01297 | 121.78622 | 33477 ft | 489 kts | 325° |
| 2026-04-30 12:34 | 13.04123 | 121.76647 | 32119 ft | 502 kts | 324° |
| 2026-04-30 12:34 | 13.07023 | 121.74622 | 31067 ft | 509 kts | 324° |
| 2026-04-30 12:34 | 13.09927 | 121.72594 | 30558 ft | 502 kts | 324° |
| 2026-04-30 12:34 | 13.12823 | 121.70571 | 30127 ft | 495 kts | 324° |
| 2026-04-30 12:35 | 13.15662 | 121.68586 | 29660 ft | 489 kts | 324° |
| 2026-04-30 12:35 | 13.18435 | 121.66647 | 29164 ft | 484 kts | 324° |
| 2026-04-30 12:35 | 13.21220 | 121.64699 | 28656 ft | 480 kts | 324° |
| 2026-04-30 12:35 | 13.23946 | 121.62790 | 28162 ft | 475 kts | 324° |
| 2026-04-30 12:36 | 13.26690 | 121.60867 | 27631 ft | 471 kts | 324° |
| 2026-04-30 12:36 | 13.29378 | 121.58983 | 27117 ft | 467 kts | 325° |
| 2026-04-30 12:36 | 13.32054 | 121.57107 | 26534 ft | 465 kts | 325° |
| 2026-04-30 12:36 | 13.34719 | 121.55240 | 26030 ft | 461 kts | 325° |
| 2026-04-30 12:37 | 13.37368 | 121.53382 | 25677 ft | 453 kts | 325° |
| 2026-04-30 12:37 | 13.39914 | 121.51599 | 25561 ft | 441 kts | 325° |
| 2026-04-30 12:37 | 13.42430 | 121.49835 | 25049 ft | 439 kts | 325° |
| 2026-04-30 12:37 | 13.44953 | 121.48064 | 24485 ft | 439 kts | 325° |
| 2026-04-30 12:38 | 13.47464 | 121.46302 | 24199 ft | 430 kts | 326° |
| 2026-04-30 12:38 | 13.49901 | 121.44592 | 24117 ft | 417 kts | 326° |
| 2026-04-30 12:38 | 13.52261 | 121.42936 | 24019 ft | 406 kts | 326° |
| 2026-04-30 12:38 | 13.54591 | 121.41300 | 23949 ft | 393 kts | 326° |
| 2026-04-30 12:39 | 13.56817 | 121.39737 | 23873 ft | 382 kts | 326° |
| 2026-04-30 12:39 | 13.58970 | 121.38186 | 23665 ft | 375 kts | 324° |
| 2026-04-30 12:39 | 13.61068 | 121.36623 | 23318 ft | 373 kts | 324° |
| 2026-04-30 12:39 | 13.63155 | 121.35058 | 22984 ft | 370 kts | 324° |
| 2026-04-30 12:40 | 13.65216 | 121.33515 | 22657 ft | 368 kts | 324° |
| 2026-04-30 12:40 | 13.67304 | 121.31954 | 22329 ft | 365 kts | 324° |
| 2026-04-30 12:40 | 13.69344 | 121.30431 | 22019 ft | 362 kts | 324° |
| 2026-04-30 12:40 | 13.71368 | 121.28921 | 21707 ft | 360 kts | 324° |
| 2026-04-30 12:41 | 13.73405 | 121.27402 | 21389 ft | 358 kts | 324° |
| 2026-04-30 12:41 | 13.75404 | 121.25911 | 21075 ft | 356 kts | 324° |
| 2026-04-30 12:41 | 13.77417 | 121.24409 | 20760 ft | 354 kts | 324° |
| 2026-04-30 12:41 | 13.79399 | 121.22929 | 20452 ft | 352 kts | 324° |
| 2026-04-30 12:42 | 13.81385 | 121.21447 | 20140 ft | 350 kts | 324° |
| 2026-04-30 12:42 | 13.83339 | 121.19988 | 19836 ft | 347 kts | 324° |
| 2026-04-30 12:42 | 13.85301 | 121.18523 | 19529 ft | 345 kts | 324° |
| 2026-04-30 12:42 | 13.87236 | 121.17077 | 19222 ft | 344 kts | 324° |
| 2026-04-30 12:43 | 13.89164 | 121.15636 | 18912 ft | 342 kts | 324° |
| 2026-04-30 12:43 | 13.91084 | 121.14224 | 18599 ft | 340 kts | 329° |
| 2026-04-30 12:43 | 13.93243 | 121.13269 | 18207 ft | 338 kts | 347° |
| 2026-04-30 12:43 | 13.95547 | 121.12751 | 17882 ft | 336 kts | 350° |
| 2026-04-30 12:44 | 13.97081 | 121.12434 | 17670 ft | 335 kts | 349° |
| 2026-04-30 12:44 | 14.00130 | 121.11733 | 17246 ft | 334 kts | 348° |
| 2026-04-30 12:44 | 14.02365 | 121.11195 | 16925 ft | 332 kts | 350° |
| 2026-04-30 12:44 | 14.04650 | 121.10764 | 16603 ft | 330 kts | 352° |
| 2026-04-30 12:45 | 14.06909 | 121.10369 | 16290 ft | 329 kts | 352° |
| 2026-04-30 12:45 | 14.09163 | 121.09969 | 15992 ft | 327 kts | 352° |
| 2026-04-30 12:45 | 14.11411 | 121.09560 | 15694 ft | 325 kts | 351° |
| 2026-04-30 12:45 | 14.13662 | 121.09143 | 15398 ft | 324 kts | 352° |
| 2026-04-30 12:46 | 14.15873 | 121.08730 | 15106 ft | 322 kts | 351° |
| 2026-04-30 12:46 | 14.18074 | 121.08318 | 14799 ft | 320 kts | 351° |
| 2026-04-30 12:46 | 14.20253 | 121.07909 | 14495 ft | 318 kts | 350° |
| 2026-04-30 12:46 | 14.22358 | 121.07180 | 13970 ft | 323 kts | 331° |
| 2026-04-30 12:47 | 14.23564 | 121.06270 | 13343 ft | 332 kts | 316° |
| 2026-04-30 12:47 | 14.25164 | 121.03535 | 11977 ft | 348 kts | 286° |
| 2026-04-30 12:47 | 14.25645 | 121.01090 | 10903 ft | 357 kts | 279° |
| 2026-04-30 12:47 | 14.25980 | 120.98551 | 9790 ft | 364 kts | 278° |
| 2026-04-30 12:48 | 14.26286 | 120.95946 | 8834 ft | 363 kts | 277° |
| 2026-04-30 12:48 | 14.26570 | 120.93418 | 7980 ft | 357 kts | 277° |
| 2026-04-30 12:48 | 14.26839 | 120.90911 | 7144 ft | 349 kts | 277° |
| 2026-04-30 12:48 | 14.27091 | 120.88492 | 6640 ft | 332 kts | 277° |
| 2026-04-30 12:49 | 14.27316 | 120.86208 | 6274 ft | 314 kts | 277° |
| 2026-04-30 12:49 | 14.27521 | 120.84033 | 5976 ft | 297 kts | 277° |
| 2026-04-30 12:49 | 14.27802 | 120.81960 | 5576 ft | 284 kts | 290° |
| 2026-04-30 12:49 | 14.28742 | 120.80267 | 5155 ft | 270 kts | 318° |
| 2026-04-30 12:50 | 14.30120 | 120.79047 | 4933 ft | 254 kts | 325° |
| 2026-04-30 12:50 | 14.31510 | 120.77988 | 4705 ft | 241 kts | 327° |
| 2026-04-30 12:50 | 14.32867 | 120.77014 | 4452 ft | 229 kts | 335° |
| 2026-04-30 12:50 | 14.34348 | 120.76615 | 4040 ft | 222 kts | 7° |
| 2026-04-30 12:51 | 14.35826 | 120.77000 | 3616 ft | 217 kts | 24° |
| 2026-04-30 12:51 | 14.37093 | 120.77828 | 3179 ft | 215 kts | 45° |
| 2026-04-30 12:51 | 14.38065 | 120.79001 | 2761 ft | 214 kts | 56° |
| 2026-04-30 12:51 | 14.38850 | 120.80281 | 2505 ft | 205 kts | 60° |
| 2026-04-30 12:52 | 14.39530 | 120.81493 | 2491 ft | 186 kts | 60° |
| 2026-04-30 12:52 | 14.40132 | 120.82590 | 2506 ft | 167 kts | 61° |
| 2026-04-30 12:52 | 14.40686 | 120.83601 | 2483 ft | 159 kts | 60° |
| 2026-04-30 12:52 | 14.41230 | 120.84590 | 2480 ft | 159 kts | 61° |
| 2026-04-30 12:53 | 14.41783 | 120.85592 | 2481 ft | 159 kts | 60° |
| 2026-04-30 12:53 | 14.42336 | 120.86593 | 2484 ft | 160 kts | 61° |
| 2026-04-30 12:53 | 14.42885 | 120.87584 | 2487 ft | 160 kts | 61° |
| 2026-04-30 12:53 | 14.43441 | 120.88586 | 2462 ft | 161 kts | 60° |
| 2026-04-30 12:54 | 14.43996 | 120.89587 | 2277 ft | 160 kts | 60° |
| 2026-04-30 12:54 | 14.44534 | 120.90556 | 2074 ft | 153 kts | 61° |
| 2026-04-30 12:54 | 14.45052 | 120.91489 | 1868 ft | 145 kts | 61° |
| 2026-04-30 12:54 | 14.45547 | 120.92381 | 1689 ft | 140 kts | 60° |
| 2026-04-30 12:55 | 14.46027 | 120.93246 | 1528 ft | 140 kts | 61° |
| 2026-04-30 12:55 | 14.46516 | 120.94126 | 1353 ft | 140 kts | 62° |
| 2026-04-30 12:55 | 14.46997 | 120.94994 | 1179 ft | 140 kts | 60° |
| 2026-04-30 12:55 | 14.47485 | 120.95869 | 997 ft | 140 kts | 63° |
| 2026-04-30 12:56 | 14.47966 | 120.96741 | 819 ft | 139 kts | 60° |
| 2026-04-30 12:56 | 14.48457 | 120.97602 | 631 ft | 139 kts | 62° |
| 2026-04-30 12:56 | 14.48938 | 120.98458 | 462 ft | 139 kts | 63° |
| 2026-04-30 12:56 | 14.49408 | 120.99325 | 299 ft | 137 kts | 62° |
| 2026-04-30 12:57 | 14.49883 | 121.00184 | 111 ft | 137 kts | 64° |
| 2026-04-30 12:57 | 14.50327 | 121.00996 | 90 ft | 113 kts | 59° |
| 2026-04-30 12:57 | 14.50630 | 121.01537 | 90 ft | 60 kts | 60° |
| 2026-04-30 12:57 | 14.50767 | 121.01781 | 90 ft | 31 kts | 60° |
| 2026-04-30 12:58 | 14.50872 | 121.01971 | 90 ft | 29 kts | 59° |
| 2026-04-30 12:58 | 14.50976 | 121.02147 | 90 ft | 27 kts | 50° |
| 2026-04-30 12:58 | 14.51088 | 121.02255 | 90 ft | 7 kts | 43° |
| 2026-04-30 12:58 | 14.51130 | 121.02295 | 90 ft | 8 kts | 43° |
| 2026-04-30 12:59 | 14.51172 | 121.02306 | 90 ft | 6 kts | 344° |
| 2026-04-30 12:59 | 14.51193 | 121.02278 | 90 ft | 4 kts | 278° |
| 2026-04-30 12:59 | 14.51181 | 121.02239 | 90 ft | 7 kts | 242° |
| 2026-04-30 12:59 | 14.51146 | 121.02177 | 90 ft | 12 kts | 240° |
| 2026-04-30 13:00 | 14.51099 | 121.02094 | 90 ft | 14 kts | 239° |
| 2026-04-30 13:00 | 14.51063 | 121.02023 | 90 ft | 7 kts | 257° |
| 2026-04-30 13:00 | 14.51069 | 121.01992 | 90 ft | 4 kts | 301° |
| 2026-04-30 13:00 | 14.51097 | 121.01959 | 90 ft | 8 kts | 313° |
| 2026-04-30 13:01 | 14.51142 | 121.01911 | 90 ft | 10 kts | 315° |
| 2026-04-30 13:01 | 14.51193 | 121.01859 | 90 ft | 8 kts | 314° |
| 2026-04-30 13:01 | 14.51239 | 121.01811 | 90 ft | 10 kts | 314° |
| 2026-04-30 13:01 | 14.51296 | 121.01754 | 90 ft | 12 kts | 315° |
| 2026-04-30 13:02 | 14.51360 | 121.01689 | 90 ft | 13 kts | 315° |
| 2026-04-30 13:02 | 14.51409 | 121.01640 | 90 ft | 9 kts | 314° |
| 2026-04-30 13:02 | 14.51459 | 121.01586 | 90 ft | 10 kts | 314° |
| 2026-04-30 13:02 | 14.51499 | 121.01544 | 90 ft | 8 kts | 314° |
| 2026-04-30 13:03 | 14.51534 | 121.01509 | 90 ft | 3 kts | 329° |
| 2026-04-30 13:03 | 14.51562 | 121.01515 | 90 ft | 4 kts | 43° |
| 2026-04-30 13:03 | 14.51583 | 121.01537 | 90 ft | 6 kts | 44° |
| 2026-04-30 13:03 | 14.51607 | 121.01560 | 90 ft | 0 kts | 44° |